createdAt,value
2019-01-16T00:00:43.903Z,11.26
2019-01-16T00:03:52.712Z,11.14
2019-01-16T00:06:46.694Z,11.24
2019-01-16T00:09:37.296Z,11.29
2019-01-16T00:12:39.565Z,11.29
2019-01-16T00:15:22.504Z,11.55
2019-01-16T00:18:18.918Z,11.19
2019-01-16T00:21:09.616Z,11.19
2019-01-16T00:24:15.269Z,11.19
2019-01-16T00:27:20.828Z,11.25
2019-01-16T00:30:09.691Z,11.09
2019-01-16T00:32:58.836Z,11.23
2019-01-16T00:35:34.887Z,11.28
2019-01-16T00:38:33.129Z,11.25
2019-01-16T00:41:21.829Z,11.17
2019-01-16T00:44:13.082Z,11.10
2019-01-16T00:47:03.847Z,11.24
2019-01-16T00:49:53.007Z,11.33
2019-01-16T00:52:39.521Z,11.08
2019-01-16T00:55:30.169Z,10.99
2019-01-16T00:58:12.328Z,11.27
2019-01-16T01:01:05.884Z,11.24
2019-01-16T01:03:59.233Z,11.05
2019-01-16T01:06:59.013Z,11.05
2019-01-16T01:10:07.062Z,10.91
2019-01-16T01:12:56.119Z,11.14
2019-01-16T01:15:41.040Z,11.00
2019-01-16T01:18:40.887Z,11.01
2019-01-16T01:21:41.336Z,11.21
2019-01-16T01:24:35.100Z,11.22
2019-01-16T01:27:31.430Z,11.20
2019-01-16T01:30:40.282Z,11.30
2019-01-16T01:33:30.761Z,11.30
2019-01-16T01:36:14.800Z,11.09
2019-01-16T01:39:03.249Z,11.09
2019-01-16T01:41:54.362Z,11.04
2019-01-16T01:44:38.520Z,11.26
2019-01-16T01:47:35.679Z,11.44
2019-01-16T01:50:25.647Z,11.35
2019-01-16T01:53:31.393Z,11.38
2019-01-16T01:56:27.423Z,11.21
2019-01-16T01:59:20.584Z,10.88
2019-01-16T02:02:11.214Z,10.99
2019-01-16T02:05:00.548Z,10.99
2019-01-16T02:08:09.798Z,11.18
2019-01-16T02:10:51.209Z,11.07
2019-01-16T02:13:38.875Z,11.09
2019-01-16T02:16:29.167Z,11.09
2019-01-16T02:19:25.335Z,11.22
2019-01-16T02:22:30.859Z,11.26
2019-01-16T02:25:19.738Z,11.77
2019-01-16T02:28:10.425Z,11.77
2019-01-16T02:31:00.502Z,11.54
2019-01-16T02:33:56.536Z,11.50
2019-01-16T02:36:59.224Z,11.56
2019-01-16T02:40:04.980Z,11.68
2019-01-16T02:42:54.040Z,14.67
2019-01-16T02:46:00.500Z,14.67
2019-01-16T02:48:56.539Z,14.64
2019-01-16T02:51:50.023Z,14.64
2019-01-16T02:54:49.600Z,14.83
2019-01-16T02:57:42.457Z,15.18
2019-01-16T03:00:36.430Z,15.18
2019-01-16T03:03:28.090Z,15.34
2019-01-16T03:06:17.236Z,15.34
2019-01-16T03:09:00.496Z,15.36
2019-01-16T03:11:44.044Z,15.49
2019-01-16T03:14:40.225Z,15.55
2019-01-16T03:17:30.458Z,15.51
2019-01-16T03:20:30.221Z,15.39
2019-01-16T03:23:16.888Z,15.39
2019-01-16T03:26:13.927Z,15.31
2019-01-16T03:29:10.977Z,15.35
2019-01-16T03:31:48.942Z,15.35
2019-01-16T03:34:38.093Z,15.23
2019-01-16T03:37:29.650Z,15.22
2019-01-16T03:40:16.368Z,15.22
2019-01-16T03:43:05.082Z,15.40
2019-01-16T03:46:01.626Z,15.40
2019-01-16T03:48:55.207Z,15.56
2019-01-16T03:51:46.083Z,15.56
2019-01-16T03:54:39.243Z,15.61
2019-01-16T03:57:23.981Z,15.64
2019-01-16T04:00:20.024Z,15.82
2019-01-16T04:03:09.189Z,15.93
2019-01-16T04:05:56.750Z,15.82
2019-01-16T04:08:45.672Z,15.82
2019-01-16T04:11:26.298Z,15.73
2019-01-16T04:14:15.199Z,15.82
2019-01-16T04:17:04.471Z,15.82
2019-01-16T04:19:53.631Z,15.93
2019-01-16T04:22:46.586Z,15.97
2019-01-16T04:25:37.751Z,15.97
2019-01-16T04:28:23.089Z,15.71
2019-01-16T04:31:23.193Z,15.88
2019-01-16T04:34:12.674Z,15.88
2019-01-16T04:37:02.962Z,15.82
2019-01-16T04:39:59.405Z,15.82
2019-01-16T04:42:52.762Z,15.80
2019-01-16T04:45:43.143Z,15.18
2019-01-16T04:48:52.294Z,15.08
2019-01-16T04:51:52.002Z,15.20
2019-01-16T04:54:37.845Z,15.19
2019-01-16T04:57:27.257Z,15.19
2019-01-16T05:00:17.963Z,15.05
2019-01-16T05:03:18.110Z,15.06
2019-01-16T05:05:57.097Z,15.18
2019-01-16T05:08:42.157Z,15.43
2019-01-16T05:11:41.679Z,15.43
2019-01-16T05:14:40.881Z,15.63
2019-01-16T05:17:40.597Z,15.76
2019-01-16T05:20:29.968Z,15.61
2019-01-16T05:23:16.992Z,15.61
2019-01-16T05:26:06.042Z,15.73
2019-01-16T05:28:55.104Z,15.95
2019-01-16T05:31:45.594Z,15.95
2019-01-16T05:34:36.736Z,16.28
2019-01-16T05:37:29.814Z,16.10
2019-01-16T05:40:46.283Z,15.78
2019-01-16T05:43:32.170Z,16.03
2019-01-16T05:46:22.960Z,15.94
2019-01-16T05:49:13.435Z,15.94
2019-01-16T05:52:06.665Z,15.99
2019-01-16T05:54:57.092Z,16.38
2019-01-16T05:57:45.863Z,16.39
2019-01-16T06:00:39.125Z,16.34
2019-01-16T06:03:29.703Z,16.45
2019-01-16T06:06:15.627Z,16.45
2019-01-16T06:09:12.363Z,16.07
2019-01-16T06:12:03.366Z,16.61
2019-01-16T06:15:02.672Z,16.61
2019-01-16T06:17:58.801Z,16.94
2019-01-16T06:20:47.963Z,16.94
2019-01-16T06:23:47.878Z,16.97
2019-01-16T06:26:36.636Z,16.94
2019-01-16T06:29:38.602Z,16.77
2019-01-16T06:32:35.139Z,16.77
2019-01-16T06:35:38.123Z,16.90
2019-01-16T06:38:32.720Z,16.99
2019-01-16T06:41:26.059Z,17.13
2019-01-16T06:44:16.996Z,16.90
2019-01-16T06:47:07.583Z,16.90
2019-01-16T06:50:04.436Z,17.06
2019-01-16T06:53:00.670Z,17.22
2019-01-16T06:55:54.339Z,17.22
2019-01-16T06:58:37.536Z,17.28
2019-01-16T07:01:34.334Z,17.18
2019-01-16T07:04:22.949Z,17.05
2019-01-16T07:07:07.739Z,17.05
2019-01-16T07:09:51.044Z,17.21
2019-01-16T07:12:40.225Z,17.12
2019-01-16T07:15:36.442Z,17.12
2019-01-16T07:18:25.614Z,17.32
2019-01-16T07:21:27.773Z,17.40
2019-01-16T07:24:09.470Z,17.45
2019-01-16T07:27:05.493Z,17.45
2019-01-16T07:30:03.173Z,17.32
2019-01-16T07:33:05.855Z,17.67
2019-01-16T07:36:08.636Z,17.86
2019-01-16T07:38:58.097Z,17.86
2019-01-16T07:42:00.881Z,17.78
2019-01-16T07:44:57.225Z,17.89
2019-01-16T07:47:40.234Z,18.11
2019-01-16T07:50:33.908Z,18.11
2019-01-16T07:53:21.189Z,17.97
2019-01-16T07:56:26.879Z,18.23
2019-01-16T07:59:10.250Z,17.97
2019-01-16T08:01:59.465Z,18.02
2019-01-16T08:04:49.656Z,18.02
2019-01-16T08:07:42.357Z,18.14
2019-01-16T08:10:48.160Z,18.16
2019-01-16T08:13:38.568Z,18.16
2019-01-16T08:16:32.540Z,18.27
2019-01-16T08:19:22.009Z,17.93
2019-01-16T08:22:11.587Z,17.84
2019-01-16T08:25:11.398Z,18.19
2019-01-16T08:28:10.492Z,18.03
2019-01-16T08:31:19.512Z,18.03
2019-01-16T08:34:19.747Z,18.26
2019-01-16T08:37:18.024Z,18.54
2019-01-16T08:40:26.863Z,18.38
2019-01-16T08:43:12.614Z,18.38
2019-01-16T08:46:08.856Z,18.62
2019-01-16T08:48:58.058Z,18.62
2019-01-16T08:51:57.746Z,18.83
2019-01-16T08:54:46.697Z,18.42
2019-01-16T08:57:52.144Z,18.43
2019-01-16T09:00:48.479Z,18.58
2019-01-16T09:03:37.953Z,18.58
2019-01-16T09:06:27.431Z,18.50
2019-01-16T09:09:16.486Z,18.56
2019-01-16T09:12:07.097Z,18.76
2019-01-16T09:15:16.218Z,18.76
2019-01-16T09:18:07.204Z,18.53
2019-01-16T09:21:07.833Z,18.53
2019-01-16T09:24:16.278Z,18.56
2019-01-16T09:27:18.141Z,18.56
2019-01-16T09:30:06.920Z,18.32
2019-01-16T09:32:57.300Z,18.30
2019-01-16T09:35:47.885Z,18.30
2019-01-16T09:38:47.384Z,18.22
2019-01-16T09:41:37.782Z,18.22
2019-01-16T09:44:31.365Z,18.13
2019-01-16T09:47:31.072Z,18.13
2019-01-16T09:50:21.573Z,18.33
2019-01-16T09:53:02.788Z,18.54
2019-01-16T09:55:53.953Z,18.48
2019-01-16T09:58:43.445Z,18.48
2019-01-16T10:01:38.411Z,18.45
2019-01-16T10:04:30.051Z,18.45
2019-01-16T10:07:17.698Z,18.31
2019-01-16T10:10:01.713Z,18.29
2019-01-16T10:12:49.770Z,18.58
2019-01-16T10:15:38.620Z,18.58
2019-01-16T10:18:17.600Z,18.69
2019-01-16T10:20:59.724Z,18.62
2019-01-16T10:24:01.722Z,18.47
2019-01-16T10:26:50.968Z,18.59
2019-01-16T10:29:40.694Z,18.60
2019-01-16T10:32:29.618Z,18.60
2019-01-16T10:35:20.109Z,18.38
2019-01-16T10:38:19.206Z,18.38
2019-01-16T10:41:22.904Z,18.34
2019-01-16T10:44:12.488Z,18.34
2019-01-16T10:47:08.648Z,18.43
2019-01-16T10:50:03.248Z,18.42
2019-01-16T10:52:52.861Z,18.42
2019-01-16T10:55:41.741Z,18.44
2019-01-16T10:58:38.204Z,18.55
2019-01-16T11:01:26.231Z,18.55
2019-01-16T11:04:28.447Z,18.63
2019-01-16T11:07:17.439Z,18.52
2019-01-16T11:10:17.248Z,18.52
2019-01-16T11:13:13.907Z,18.51
2019-01-16T11:16:07.554Z,18.51
2019-01-16T11:19:03.825Z,18.61
2019-01-16T11:22:12.951Z,18.46
2019-01-16T11:25:01.616Z,18.44
2019-01-16T11:28:01.530Z,18.56
2019-01-16T11:30:49.419Z,18.56
2019-01-16T11:33:55.604Z,18.31
2019-01-16T11:36:44.554Z,18.22
2019-01-16T11:39:47.646Z,18.22
2019-01-16T11:42:45.223Z,18.13
2019-01-16T11:45:24.337Z,18.13
2019-01-16T11:48:20.669Z,18.08
2019-01-16T11:51:18.486Z,18.08
2019-01-16T11:54:04.560Z,18.00
2019-01-16T11:56:43.573Z,17.93
2019-01-16T11:59:41.539Z,17.97
2019-01-16T12:02:44.122Z,17.79
2019-01-16T12:05:39.411Z,17.85
2019-01-16T12:08:29.721Z,17.85
2019-01-16T12:11:29.031Z,17.84
2019-01-16T12:14:18.188Z,17.84
2019-01-16T12:17:01.832Z,17.98
2019-01-16T12:19:58.248Z,17.97
2019-01-16T12:22:54.902Z,17.95
2019-01-16T12:25:38.544Z,17.95
2019-01-16T12:28:34.871Z,17.93
2019-01-16T12:31:23.825Z,17.88
2019-01-16T12:34:14.327Z,17.85
2019-01-16T12:37:04.824Z,17.85
2019-01-16T12:39:55.530Z,17.83
2019-01-16T12:42:44.504Z,17.82
2019-01-16T12:45:37.745Z,17.74
2019-01-16T12:48:44.212Z,17.74
2019-01-16T12:51:38.616Z,17.66
2019-01-16T12:54:31.849Z,17.66
2019-01-16T12:57:36.559Z,17.61
2019-01-16T13:00:44.579Z,17.61
2019-01-16T13:03:35.904Z,17.56
2019-01-16T13:09:15.362Z,17.48
2019-01-16T13:12:06.374Z,17.51
2019-01-16T13:15:00.974Z,17.51
2019-01-16T13:17:50.426Z,17.62
2019-01-16T13:20:40.821Z,17.64
2019-01-16T13:23:29.986Z,17.68
2019-01-16T13:26:18.751Z,17.67
2019-01-16T13:29:15.089Z,17.63
2019-01-16T13:32:14.707Z,17.61
2019-01-16T13:35:05.806Z,17.61
2019-01-16T13:37:48.936Z,17.60
2019-01-16T13:40:38.622Z,17.57
2019-01-16T13:43:24.702Z,17.58
2019-01-16T13:46:14.886Z,17.58
2019-01-16T14:00:37.416Z,17.58
2019-01-16T14:03:20.997Z,17.58
2019-01-16T14:06:11.510Z,17.49
2019-01-16T14:09:12.941Z,17.49
2019-01-16T14:12:01.871Z,17.26
2019-01-16T14:14:51.630Z,17.06
2019-01-16T14:17:46.264Z,17.07
2019-01-16T14:20:37.364Z,17.07
2019-01-16T14:23:42.925Z,17.16
2019-01-16T14:26:31.784Z,17.23
2019-01-16T14:29:24.851Z,17.21
2019-01-16T14:32:13.700Z,16.84
2019-01-16T14:35:12.997Z,16.62
2019-01-16T14:38:02.056Z,16.64
2019-01-16T14:41:00.236Z,16.64
2019-01-16T14:43:43.370Z,16.71
2019-01-16T14:46:32.114Z,16.64
2019-01-16T14:49:18.457Z,16.77
2019-01-16T14:52:14.971Z,16.71
2019-01-16T14:55:06.308Z,16.70
2019-01-16T14:57:47.235Z,16.70
2019-01-16T15:00:37.436Z,16.76
2019-01-16T15:03:26.387Z,16.61
2019-01-16T15:06:13.315Z,16.61
2019-01-16T15:09:07.485Z,16.44
2019-01-16T15:12:00.958Z,16.44
2019-01-16T15:14:50.334Z,15.37
2019-01-16T15:17:40.611Z,15.05
2019-01-16T15:20:43.801Z,15.01
2019-01-16T15:23:26.043Z,15.00
2019-01-16T15:26:15.267Z,15.00
2019-01-16T15:28:57.884Z,14.99
2019-01-16T15:31:47.150Z,14.74
2019-01-16T15:34:49.367Z,14.58
2019-01-16T15:37:43.001Z,14.57
2019-01-16T15:40:32.858Z,14.63
2019-01-16T15:43:20.426Z,14.76
2019-01-16T15:46:20.452Z,14.55
2019-01-16T15:49:17.343Z,14.55
2019-01-16T15:52:13.059Z,14.42
2019-01-16T15:55:09.119Z,14.42
2019-01-16T15:57:59.573Z,14.47
2019-01-16T16:00:56.150Z,14.48
2019-01-16T16:04:02.000Z,14.69
2019-01-16T16:06:50.859Z,14.69
2019-01-16T16:09:38.146Z,14.58
2019-01-16T16:12:29.205Z,14.58
2019-01-16T16:15:22.358Z,14.43
2019-01-16T16:18:21.868Z,14.29
2019-01-16T16:21:20.653Z,14.17
2019-01-16T16:24:05.772Z,14.20
2019-01-16T16:26:48.351Z,14.14
2019-01-16T16:29:37.815Z,14.25
2019-01-16T16:32:37.511Z,14.25
2019-01-16T16:35:27.458Z,14.21
2019-01-16T16:38:16.257Z,14.16
2019-01-16T16:41:12.483Z,14.12
2019-01-16T16:44:03.188Z,14.12
2019-01-16T16:46:57.462Z,13.79
2019-01-16T16:49:40.585Z,13.79
2019-01-16T16:52:31.195Z,13.94
2019-01-16T16:55:37.860Z,13.94
2019-01-16T16:58:31.324Z,13.69
2019-01-16T17:01:28.061Z,13.69
2019-01-16T17:04:18.212Z,13.59
2019-01-16T17:07:14.273Z,13.54
2019-01-16T17:10:04.266Z,13.54
2019-01-16T17:12:55.361Z,13.47
2019-01-16T17:15:51.424Z,13.47
2019-01-16T17:18:39.493Z,13.75
2019-01-16T17:21:26.038Z,13.64
2019-01-16T17:24:26.497Z,13.46
2019-01-16T17:27:15.343Z,13.49
2019-01-16T17:30:00.394Z,13.61
2019-01-16T17:32:59.509Z,13.68
2019-01-16T17:36:01.967Z,13.68
2019-01-16T17:38:58.099Z,13.51
2019-01-16T17:41:41.562Z,13.47
2019-01-16T17:44:28.961Z,13.57
2019-01-16T17:47:25.492Z,13.48
2019-01-16T17:50:15.589Z,13.48
2019-01-16T17:53:15.195Z,13.48
2019-01-16T17:56:07.953Z,13.58
2019-01-16T17:58:57.568Z,13.58
2019-01-16T18:02:00.089Z,13.31
2019-01-16T18:04:44.550Z,13.35
2019-01-16T18:07:33.211Z,13.35
2019-01-16T18:10:24.022Z,13.48
2019-01-16T18:13:26.087Z,13.34
2019-01-16T18:16:22.507Z,13.34
2019-01-16T18:19:12.801Z,13.10
2019-01-16T18:22:11.887Z,13.09
2019-01-16T18:25:00.858Z,13.09
2019-01-16T18:27:44.154Z,13.37
2019-01-16T18:30:44.716Z,13.37
2019-01-16T18:33:37.252Z,13.29
2019-01-16T18:36:25.960Z,13.29
2019-01-16T18:39:31.870Z,13.31
2019-01-16T18:42:28.104Z,13.23
2019-01-16T18:45:26.689Z,13.17
2019-01-16T18:48:20.376Z,13.16
2019-01-16T18:51:11.568Z,13.16
2019-01-16T18:53:58.067Z,13.01
2019-01-16T18:56:56.867Z,12.83
2019-01-16T18:59:50.541Z,12.83
2019-01-16T19:05:37.459Z,13.14
2019-01-16T19:08:38.809Z,12.95
2019-01-16T19:11:41.095Z,13.08
2019-01-16T19:14:46.541Z,13.14
2019-01-16T19:17:43.500Z,13.07
2019-01-16T19:20:35.097Z,12.80
2019-01-16T19:23:25.295Z,12.71
2019-01-16T19:26:10.869Z,12.71
2019-01-16T19:29:00.557Z,12.71
2019-01-16T19:31:53.709Z,12.84
2019-01-16T19:34:34.481Z,12.79
2019-01-16T19:37:17.190Z,12.53
2019-01-16T19:40:20.499Z,12.84
2019-01-16T19:43:29.312Z,12.81
2019-01-16T19:46:31.810Z,12.73
2019-01-16T19:49:13.993Z,12.55
2019-01-16T19:51:58.967Z,12.69
2019-01-16T19:54:49.149Z,12.46
2019-01-16T19:57:39.330Z,12.50
2019-01-16T20:00:36.797Z,12.50
2019-01-16T20:03:35.789Z,12.59
2019-01-16T20:06:32.121Z,12.62
2019-01-16T20:09:20.576Z,12.23
2019-01-16T20:12:26.324Z,12.23
2019-01-16T20:15:19.897Z,12.65
2019-01-16T20:18:12.736Z,12.64
2019-01-16T20:21:01.849Z,12.58
2019-01-16T20:23:50.667Z,12.58
2019-01-16T20:26:53.256Z,12.23
2019-01-16T20:29:41.898Z,12.33
2019-01-16T20:32:32.281Z,12.33
2019-01-16T20:35:25.146Z,12.38
2019-01-16T20:38:15.430Z,12.39
2019-01-16T20:41:00.366Z,12.44
2019-01-16T20:43:59.917Z,12.37
2019-01-16T20:47:05.460Z,12.40
2019-01-16T20:49:55.236Z,12.18
2019-01-16T20:52:48.398Z,12.18
2019-01-16T20:55:45.992Z,11.96
2019-01-16T20:58:29.107Z,12.31
2019-01-16T21:01:10.865Z,12.50
2019-01-16T21:04:07.114Z,12.30
2019-01-16T21:06:55.965Z,12.20
2019-01-16T21:09:54.746Z,12.20
2019-01-16T21:13:00.408Z,11.87
2019-01-16T21:15:51.755Z,11.87
2019-01-16T21:18:52.759Z,11.65
2019-01-16T21:21:35.982Z,11.65
2019-01-16T21:24:25.255Z,11.96
2019-01-16T21:27:15.851Z,11.87
2019-01-16T21:30:06.034Z,11.90
2019-01-16T21:32:46.098Z,11.90
2019-01-16T21:35:36.689Z,11.77
2019-01-16T21:38:45.350Z,11.93
2019-01-16T21:41:35.878Z,11.93
2019-01-16T21:44:35.315Z,11.74
2019-01-16T21:47:38.001Z,11.73
2019-01-16T21:50:27.375Z,11.73
2019-01-16T21:53:15.502Z,11.70
2019-01-16T21:56:05.592Z,11.70
2019-01-16T21:58:54.660Z,11.54
2019-01-16T22:01:53.549Z,11.51
2019-01-16T22:04:42.596Z,11.51
2019-01-16T22:07:50.826Z,11.34
2019-01-16T22:10:44.276Z,11.64
2019-01-16T22:13:34.382Z,11.64
2019-01-16T22:16:26.438Z,11.58
2019-01-16T22:19:23.863Z,11.69
2019-01-16T22:22:16.415Z,11.69
2019-01-16T22:25:13.862Z,11.45
2019-01-16T22:27:56.990Z,11.43
2019-01-16T22:30:49.839Z,11.32
2019-01-16T22:33:45.960Z,11.32
2019-01-16T22:36:29.911Z,11.39
2019-01-16T22:39:19.820Z,11.33
2019-01-16T22:42:08.850Z,11.33
2019-01-16T22:44:59.056Z,11.54
2019-01-16T22:47:40.548Z,11.45
2019-01-16T22:50:36.879Z,11.45
2019-01-16T22:53:30.372Z,11.24
2019-01-16T22:56:29.730Z,11.21
2019-01-16T22:59:19.420Z,11.43
2019-01-16T23:02:05.247Z,11.15
2019-01-16T23:04:55.006Z,11.31
2019-01-16T23:07:34.955Z,11.20
2019-01-16T23:10:43.266Z,11.20
2019-01-16T23:13:36.305Z,11.23
2019-01-16T23:16:42.256Z,11.23
2019-01-16T23:19:31.213Z,10.90
2019-01-16T23:22:27.445Z,10.90
2019-01-16T23:25:16.193Z,10.85
2019-01-16T23:28:10.713Z,11.07
2019-01-16T23:31:13.926Z,11.05
2019-01-16T23:34:10.340Z,10.79
2019-01-16T23:37:05.734Z,10.89
2019-01-16T23:39:45.793Z,10.89
2019-01-16T23:42:34.754Z,11.07
2019-01-16T23:45:31.489Z,10.86
2019-01-16T23:48:22.078Z,10.82
2019-01-16T23:51:05.118Z,10.82
2019-01-16T23:53:58.569Z,10.91
2019-01-16T23:56:47.221Z,10.91
2019-01-16T23:59:43.563Z,10.94
